createdAt,value
2023-01-18T00:00:32.708Z,15.03
2023-01-18T00:03:03.260Z,16.97
2023-01-18T00:05:31.149Z,12.90
2023-01-18T00:08:00.361Z,14.10
2023-01-18T00:10:28.227Z,14.20
2023-01-18T00:12:56.574Z,12.90
2023-01-18T00:15:24.621Z,18.17
2023-01-18T00:17:52.549Z,13.13
2023-01-18T00:20:23.791Z,14.67
2023-01-18T00:22:52.947Z,13.00
2023-01-18T00:25:23.965Z,13.57
2023-01-18T00:27:53.500Z,14.07
2023-01-18T00:30:23.603Z,12.40
2023-01-18T00:32:55.284Z,12.43
2023-01-18T00:35:23.549Z,15.77
2023-01-18T00:37:52.776Z,16.60
2023-01-18T00:40:23.567Z,13.73
2023-01-18T00:43:08.820Z,16.43
2023-01-18T00:45:36.703Z,14.27
2023-01-18T00:48:04.548Z,13.67
2023-01-18T00:50:32.338Z,17.83
2023-01-18T00:53:00.636Z,16.43
2023-01-18T00:55:29.885Z,13.20
2023-01-18T00:57:57.589Z,15.63
2023-01-18T01:00:27.023Z,14.27
2023-01-18T01:02:55.085Z,16.43
2023-01-18T01:05:53.809Z,16.60
2023-01-18T01:08:23.514Z,15.60
2023-01-18T01:11:04.216Z,13.80
2023-01-18T01:13:49.695Z,14.63
2023-01-18T01:16:34.911Z,15.20
2023-01-18T01:19:20.047Z,17.43
2023-01-18T01:22:05.975Z,15.07
2023-01-18T01:24:51.065Z,15.97
2023-01-18T01:27:20.190Z,17.87
2023-01-18T01:29:47.909Z,14.93
2023-01-18T01:32:15.682Z,15.07
2023-01-18T01:34:43.454Z,19.80
2023-01-18T01:37:11.173Z,16.20
2023-01-18T01:39:38.927Z,15.60
2023-01-18T01:42:06.786Z,15.33
2023-01-18T01:44:49.630Z,15.43
2023-01-18T01:47:38.259Z,14.10
2023-01-18T01:50:13.035Z,15.83
2023-01-18T01:52:42.929Z,17.70
2023-01-18T01:55:16.860Z,16.57
2023-01-18T01:57:49.170Z,15.20
2023-01-18T02:00:20.797Z,17.10
2023-01-18T02:02:52.090Z,15.37
2023-01-18T02:05:20.496Z,15.37
2023-01-18T02:07:49.098Z,14.50
2023-01-18T02:10:17.322Z,14.47
2023-01-18T02:12:48.320Z,15.70
2023-01-18T02:15:17.020Z,15.60
2023-01-18T02:18:12.204Z,16.80
2023-01-18T02:21:03.109Z,16.23
2023-01-18T02:24:02.145Z,17.60
2023-01-18T02:26:52.687Z,14.97
2023-01-18T02:29:28.257Z,15.30
2023-01-18T02:32:08.779Z,19.17
2023-01-18T02:34:41.845Z,14.10
2023-01-18T02:37:18.351Z,13.57
2023-01-18T02:39:58.889Z,15.57
2023-01-18T02:42:46.677Z,15.80
2023-01-18T02:45:42.963Z,17.33
2023-01-18T02:48:11.902Z,16.20
2023-01-18T02:50:39.649Z,16.07
2023-01-18T02:53:07.413Z,17.27
2023-01-18T02:55:40.548Z,15.37
2023-01-18T02:58:12.602Z,14.83
2023-01-18T03:00:47.062Z,19.77
2023-01-18T03:03:18.357Z,16.73
2023-01-18T03:05:49.012Z,15.87
2023-01-18T03:08:22.821Z,18.23
2023-01-18T03:10:58.883Z,15.77
2023-01-18T03:13:37.791Z,18.03
2023-01-18T03:16:11.084Z,15.17
2023-01-18T03:19:01.096Z,16.73
2023-01-18T03:21:43.453Z,16.40
2023-01-18T03:24:11.526Z,14.90
2023-01-18T03:26:44.375Z,13.70
2023-01-18T03:29:32.144Z,15.03
2023-01-18T03:32:21.990Z,13.70
2023-01-18T03:34:54.531Z,15.27
2023-01-18T03:37:28.440Z,15.40
2023-01-18T03:40:00.590Z,12.77
2023-01-18T03:42:32.341Z,14.07
2023-01-18T03:45:07.756Z,15.10
2023-01-18T03:47:36.913Z,14.00
2023-01-18T03:50:05.571Z,14.30
2023-01-18T03:52:41.878Z,14.07
2023-01-18T03:55:16.891Z,15.77
2023-01-18T03:57:50.122Z,15.60
2023-01-18T04:00:19.350Z,15.37
2023-01-18T04:02:50.874Z,13.63
2023-01-18T04:05:19.271Z,20.80
2023-01-18T04:07:47.015Z,14.90
2023-01-18T04:10:15.150Z,16.03
2023-01-18T04:12:42.917Z,14.43
2023-01-18T04:15:11.545Z,13.87
2023-01-18T04:17:39.660Z,15.47
2023-01-18T04:20:10.630Z,16.17
2023-01-18T04:22:38.402Z,15.60
2023-01-18T04:25:06.824Z,15.77
2023-01-18T04:27:34.635Z,16.80
2023-01-18T04:30:02.441Z,14.33
2023-01-18T04:32:30.183Z,13.90
2023-01-18T04:34:57.905Z,15.43
2023-01-18T04:37:30.395Z,13.50
2023-01-18T04:39:58.394Z,14.87
2023-01-18T04:42:26.150Z,14.97
2023-01-18T04:44:54.067Z,15.20
2023-01-18T04:47:21.865Z,14.63
2023-01-18T04:49:49.660Z,15.93
2023-01-18T04:52:19.140Z,16.10
2023-01-18T04:54:48.659Z,18.57
2023-01-18T04:57:16.528Z,15.10
2023-01-18T04:59:45.952Z,16.13
2023-01-18T05:02:15.274Z,15.47
2023-01-18T05:04:44.623Z,17.37
2023-01-18T05:07:12.832Z,16.67
2023-01-18T05:09:40.586Z,15.07
2023-01-18T05:12:09.705Z,15.00
2023-01-18T05:14:37.484Z,15.77
2023-01-18T05:17:05.473Z,14.47
2023-01-18T05:19:33.563Z,13.40
2023-01-18T05:22:01.227Z,14.80
2023-01-18T05:24:30.003Z,14.83
2023-01-18T05:26:58.025Z,16.57
2023-01-18T05:29:27.257Z,16.83
2023-01-18T05:31:55.021Z,18.23
2023-01-18T05:34:22.876Z,15.13
2023-01-18T05:36:50.634Z,14.93
2023-01-18T05:39:18.607Z,15.70
2023-01-18T05:41:46.410Z,14.67
2023-01-18T05:44:14.296Z,16.03
2023-01-18T05:46:43.474Z,19.63
2023-01-18T05:49:11.239Z,15.40
2023-01-18T05:51:39.062Z,13.70
2023-01-18T05:54:07.652Z,19.73
2023-01-18T05:56:35.491Z,14.47
2023-01-18T05:59:03.300Z,16.27
2023-01-18T06:01:31.152Z,18.40
2023-01-18T06:04:00.370Z,13.73
2023-01-18T06:06:28.314Z,15.50
2023-01-18T06:08:56.100Z,16.57
2023-01-18T06:11:23.844Z,14.10
2023-01-18T06:13:52.307Z,18.70
2023-01-18T06:16:20.581Z,13.70
2023-01-18T06:18:48.296Z,14.13
2023-01-18T06:21:17.932Z,14.53
2023-01-18T06:23:45.679Z,12.80
2023-01-18T06:26:13.597Z,13.40
2023-01-18T06:28:41.322Z,12.10
2023-01-18T06:31:10.502Z,15.83
2023-01-18T06:33:38.331Z,13.87
2023-01-18T06:36:06.913Z,13.17
2023-01-18T06:38:36.033Z,17.17
2023-01-18T06:41:03.770Z,17.67
2023-01-18T06:43:31.552Z,16.67
2023-01-18T06:45:59.483Z,13.77
2023-01-18T06:48:27.968Z,14.47
2023-01-18T06:50:57.554Z,15.93
2023-01-18T06:53:25.714Z,18.50
2023-01-18T06:55:56.931Z,13.40
2023-01-18T06:58:25.743Z,18.10
2023-01-18T07:00:55.559Z,14.93
2023-01-18T07:03:23.379Z,15.73
2023-01-18T07:05:51.126Z,15.70
2023-01-18T07:08:21.024Z,17.00
2023-01-18T07:10:49.166Z,16.03
2023-01-18T07:13:18.246Z,16.40
2023-01-18T07:15:46.020Z,12.77
2023-01-18T07:18:13.825Z,13.97
2023-01-18T07:20:41.563Z,15.43
2023-01-18T07:23:09.530Z,17.37
2023-01-18T07:25:37.298Z,19.97
2023-01-18T07:28:05.456Z,17.67
2023-01-18T07:30:34.544Z,20.73
2023-01-18T07:33:02.262Z,21.90
2023-01-18T07:35:30.134Z,18.17
2023-01-18T07:37:57.916Z,16.87
2023-01-18T07:40:25.756Z,18.57
2023-01-18T07:42:58.507Z,19.47
2023-01-18T07:45:26.511Z,20.70
2023-01-18T07:47:55.701Z,20.33
2023-01-18T07:50:23.491Z,17.17
2023-01-18T07:52:51.365Z,21.63
2023-01-18T07:55:21.065Z,20.47
2023-01-18T07:57:48.852Z,23.57
2023-01-18T08:00:17.248Z,22.23
2023-01-18T08:02:45.110Z,27.93
2023-01-18T08:05:14.294Z,24.63
2023-01-18T08:07:42.056Z,26.07
2023-01-18T08:10:10.943Z,23.80
2023-01-18T08:12:38.795Z,24.63
2023-01-18T08:15:07.643Z,27.27
2023-01-18T08:17:35.657Z,24.43
2023-01-18T08:20:04.968Z,25.17
2023-01-18T08:22:34.111Z,23.27
2023-01-18T08:25:02.178Z,20.73
2023-01-18T08:27:29.982Z,23.93
2023-01-18T08:29:57.785Z,27.93
2023-01-18T08:32:25.612Z,27.23
2023-01-18T08:34:53.350Z,19.63
2023-01-18T08:37:23.715Z,21.73
2023-01-18T08:39:52.878Z,19.00
2023-01-18T08:42:20.584Z,21.27
2023-01-18T08:44:49.110Z,21.83
2023-01-18T08:47:18.017Z,21.53
2023-01-18T08:49:46.669Z,24.07
2023-01-18T08:52:15.327Z,24.77
2023-01-18T08:54:43.138Z,26.00
2023-01-18T08:57:12.196Z,22.83
2023-01-18T08:59:39.914Z,23.23
2023-01-18T09:02:07.691Z,26.70
2023-01-18T09:04:35.687Z,33.67
2023-01-18T09:07:03.382Z,29.27
2023-01-18T09:09:31.715Z,25.20
2023-01-18T09:11:59.685Z,25.63
2023-01-18T09:14:28.808Z,24.07
2023-01-18T09:16:56.530Z,28.43
2023-01-18T09:19:24.307Z,29.63
2023-01-18T09:21:52.343Z,28.03
2023-01-18T09:24:20.102Z,28.07
2023-01-18T09:26:51.092Z,24.80
2023-01-18T09:29:19.315Z,27.53
2023-01-18T09:31:49.263Z,25.60
2023-01-18T09:34:19.979Z,29.43
2023-01-18T09:36:50.972Z,26.13
2023-01-18T09:39:18.948Z,28.00
2023-01-18T09:41:53.112Z,22.67
2023-01-18T09:44:25.624Z,25.80
2023-01-18T09:46:58.804Z,24.43
2023-01-18T09:49:36.523Z,26.20
2023-01-18T09:52:19.473Z,24.43
2023-01-18T09:54:56.027Z,25.30
2023-01-18T09:57:40.624Z,26.43
2023-01-18T10:00:19.779Z,28.83
2023-01-18T10:02:53.137Z,30.43
2023-01-18T10:05:24.273Z,26.83
2023-01-18T10:08:02.671Z,28.27
2023-01-18T10:10:35.030Z,25.50
2023-01-18T10:13:28.922Z,26.93
2023-01-18T10:15:56.888Z,28.33
2023-01-18T10:18:26.526Z,24.27
2023-01-18T10:20:58.794Z,26.77
2023-01-18T10:23:31.049Z,28.90
2023-01-18T10:26:03.833Z,29.90
2023-01-18T10:28:45.170Z,27.23
2023-01-18T10:31:25.398Z,27.90
2023-01-18T10:33:58.181Z,26.93
2023-01-18T10:36:32.415Z,27.37
2023-01-18T10:39:04.256Z,23.97
2023-01-18T10:41:36.832Z,30.07
2023-01-18T10:44:04.856Z,25.17
2023-01-18T10:46:32.695Z,25.63
2023-01-18T10:49:02.618Z,25.80
2023-01-18T10:51:36.018Z,27.53
2023-01-18T10:54:23.018Z,25.13
2023-01-18T10:56:50.734Z,23.77
2023-01-18T10:59:29.824Z,23.57
2023-01-18T11:01:58.973Z,24.67
2023-01-18T11:04:30.662Z,27.00
2023-01-18T11:07:01.648Z,26.57
2023-01-18T11:09:41.949Z,24.70
2023-01-18T11:12:37.278Z,25.70
2023-01-18T11:15:25.131Z,25.07
2023-01-18T11:18:09.801Z,26.70
2023-01-18T11:20:47.935Z,29.80
2023-01-18T11:23:21.034Z,30.30
2023-01-18T11:25:53.769Z,28.57
2023-01-18T11:28:23.431Z,26.20
2023-01-18T11:30:55.273Z,26.97
2023-01-18T11:33:25.867Z,26.97
2023-01-18T11:35:57.853Z,26.70
2023-01-18T11:38:31.751Z,29.77
2023-01-18T11:41:08.194Z,25.00
2023-01-18T11:43:39.313Z,26.13
2023-01-18T11:46:23.602Z,25.40
2023-01-18T11:48:56.854Z,26.87
2023-01-18T11:51:32.817Z,25.50
2023-01-18T11:54:09.045Z,26.20
2023-01-18T11:56:43.121Z,20.90
2023-01-18T11:59:15.637Z,20.03
2023-01-18T12:01:57.173Z,18.73
2023-01-18T12:04:37.893Z,23.63
2023-01-18T12:07:24.776Z,20.87
2023-01-18T12:09:54.016Z,18.30
2023-01-18T12:12:37.820Z,24.20
2023-01-18T12:15:28.096Z,20.33
2023-01-18T12:18:18.117Z,17.60
2023-01-18T12:20:58.407Z,16.37
2023-01-18T12:23:49.097Z,18.07
2023-01-18T12:26:31.745Z,18.50
2023-01-18T12:29:13.783Z,16.87
2023-01-18T12:31:58.367Z,16.13
2023-01-18T12:34:35.747Z,16.43
2023-01-18T12:37:29.205Z,19.33
2023-01-18T12:40:17.613Z,14.37
2023-01-18T12:42:57.556Z,11.17
2023-01-18T12:45:37.852Z,14.20
2023-01-18T12:48:17.063Z,13.40
2023-01-18T12:50:47.886Z,14.53
2023-01-18T12:53:24.905Z,12.07
2023-01-18T12:55:56.179Z,12.40
2023-01-18T12:58:27.048Z,12.03
2023-01-18T13:00:59.927Z,10.40
2023-01-18T13:03:34.844Z,12.27
2023-01-18T13:06:04.275Z,12.07
2023-01-18T13:08:39.295Z,9.37
2023-01-18T13:11:14.039Z,9.17
2023-01-18T13:13:44.891Z,9.10
2023-01-18T13:16:23.853Z,9.83
2023-01-18T13:18:59.342Z,9.17
2023-01-18T13:21:38.619Z,9.00
2023-01-18T13:24:16.933Z,14.40
2023-01-18T13:26:46.208Z,9.83
2023-01-18T13:29:24.122Z,13.03
2023-01-18T13:31:52.876Z,9.53
2023-01-18T13:34:29.039Z,7.03
2023-01-18T13:37:12.920Z,9.93
2023-01-18T13:39:48.146Z,9.60
2023-01-18T13:42:34.100Z,10.27
2023-01-18T13:45:15.312Z,8.40
2023-01-18T13:47:48.916Z,7.50
2023-01-18T13:50:47.201Z,8.17
2023-01-18T13:53:26.192Z,8.63
2023-01-18T13:56:27.571Z,10.30
2023-01-18T13:59:23.649Z,7.90
2023-01-18T14:01:52.622Z,9.53
2023-01-18T14:04:26.055Z,10.50
2023-01-18T14:06:55.807Z,6.57
2023-01-18T14:09:35.589Z,7.53
2023-01-18T14:12:04.301Z,10.00
2023-01-18T14:14:36.206Z,8.73
2023-01-18T14:17:16.532Z,10.10
2023-01-18T14:20:07.850Z,7.23
2023-01-18T14:22:52.239Z,8.60
2023-01-18T14:25:34.025Z,8.10
2023-01-18T14:28:09.061Z,6.60
2023-01-18T14:30:41.331Z,10.27
2023-01-18T14:33:15.449Z,7.40
2023-01-18T14:35:52.661Z,9.00
2023-01-18T14:38:21.628Z,8.90
2023-01-18T14:40:52.629Z,7.47
2023-01-18T14:43:26.765Z,11.43
2023-01-18T14:46:00.208Z,8.57
2023-01-18T14:48:31.439Z,7.40
2023-01-18T14:51:00.590Z,6.40
2023-01-18T14:53:30.804Z,6.83
2023-01-18T14:56:04.180Z,6.50
2023-01-18T14:58:37.302Z,5.27
2023-01-18T15:01:09.429Z,6.47
2023-01-18T15:03:37.572Z,6.33
2023-01-18T15:06:13.667Z,7.83
2023-01-18T15:08:43.188Z,7.10
2023-01-18T15:11:12.454Z,9.33
2023-01-18T15:13:47.624Z,9.87
2023-01-18T15:16:21.411Z,6.83
2023-01-18T15:18:50.813Z,6.80
2023-01-18T15:21:25.564Z,7.77
2023-01-18T15:24:00.922Z,8.67
2023-01-18T15:26:36.328Z,7.33
2023-01-18T15:29:16.867Z,8.73
2023-01-18T15:31:52.507Z,8.50
2023-01-18T15:34:29.488Z,9.63
2023-01-18T15:36:59.640Z,6.80
2023-01-18T15:39:28.164Z,7.33
2023-01-18T15:42:04.531Z,7.67
2023-01-18T15:44:40.997Z,6.97
2023-01-18T15:47:18.155Z,8.97
2023-01-18T15:49:48.741Z,9.13
2023-01-18T15:52:17.171Z,7.17
2023-01-18T15:54:44.870Z,8.43
2023-01-18T15:57:20.660Z,10.07
2023-01-18T15:59:49.421Z,6.70
2023-01-18T16:02:21.058Z,6.93
2023-01-18T16:04:48.950Z,8.27
2023-01-18T16:07:38.862Z,8.90
2023-01-18T16:10:27.915Z,11.47
2023-01-18T16:12:57.586Z,11.33
2023-01-18T16:15:27.553Z,11.27
2023-01-18T16:18:12.583Z,8.93
2023-01-18T16:20:43.395Z,10.80
2023-01-18T16:23:21.906Z,11.03
2023-01-18T16:25:53.073Z,11.77
2023-01-18T16:28:23.778Z,12.57
2023-01-18T16:30:53.753Z,14.93
2023-01-18T16:33:23.804Z,7.90
2023-01-18T16:35:54.329Z,12.00
2023-01-18T16:38:28.475Z,12.33
2023-01-18T16:40:56.403Z,8.83
2023-01-18T16:43:28.517Z,8.07
2023-01-18T16:45:58.892Z,9.40
2023-01-18T16:48:30.687Z,7.97
2023-01-18T16:51:00.101Z,7.73
2023-01-18T16:53:28.315Z,7.60
2023-01-18T16:55:57.186Z,10.50
2023-01-18T16:58:26.043Z,10.17
2023-01-18T17:01:00.169Z,9.87
2023-01-18T17:03:29.793Z,8.10
2023-01-18T17:05:57.599Z,7.80
2023-01-18T17:08:25.353Z,8.90
2023-01-18T17:10:54.731Z,14.83
2023-01-18T17:13:23.779Z,6.87
2023-01-18T17:15:53.345Z,8.60
2023-01-18T17:18:24.040Z,11.10
2023-01-18T17:21:02.204Z,11.17
2023-01-18T17:23:29.969Z,9.47
2023-01-18T17:25:58.437Z,8.93
2023-01-18T17:28:27.458Z,7.83
2023-01-18T17:30:55.752Z,8.43
2023-01-18T17:33:25.844Z,9.10
2023-01-18T17:35:55.755Z,8.37
2023-01-18T17:38:28.830Z,7.77
2023-01-18T17:40:58.444Z,8.63
2023-01-18T17:43:33.758Z,6.93
2023-01-18T17:46:03.623Z,6.27
2023-01-18T17:48:31.379Z,9.80
2023-01-18T17:50:59.176Z,7.73
2023-01-18T17:53:28.490Z,6.97
2023-01-18T17:55:56.199Z,6.23
2023-01-18T17:58:24.123Z,6.00
2023-01-18T18:00:52.178Z,6.20
2023-01-18T18:03:20.799Z,8.63
2023-01-18T18:05:48.803Z,6.17
2023-01-18T18:08:38.202Z,6.57
2023-01-18T18:11:07.911Z,6.63
2023-01-18T18:13:35.985Z,7.50
2023-01-18T18:16:03.886Z,7.23
2023-01-18T18:18:31.804Z,8.30
2023-01-18T18:21:00.888Z,6.53
2023-01-18T18:23:31.113Z,9.43
2023-01-18T18:26:00.127Z,8.20
2023-01-18T18:28:29.566Z,5.50
2023-01-18T18:30:58.067Z,5.90
2023-01-18T18:33:26.857Z,5.87
2023-01-18T18:35:54.828Z,8.27
2023-01-18T18:38:23.834Z,5.90
2023-01-18T18:40:53.924Z,7.93
2023-01-18T18:43:24.487Z,6.60
2023-01-18T18:45:53.061Z,7.90
2023-01-18T18:48:20.877Z,6.83
2023-01-18T18:50:48.726Z,6.67
2023-01-18T18:53:18.145Z,7.40
2023-01-18T18:55:47.472Z,7.13
2023-01-18T18:58:18.907Z,7.30
2023-01-18T19:00:46.905Z,6.63
2023-01-18T19:03:14.768Z,8.57
2023-01-18T19:05:43.281Z,8.93
2023-01-18T19:08:10.991Z,8.87
2023-01-18T19:10:39.268Z,10.13
2023-01-18T19:13:07.423Z,6.53
2023-01-18T19:15:36.602Z,7.47
2023-01-18T19:18:04.591Z,9.70
2023-01-18T19:20:33.310Z,8.87
2023-01-18T19:23:01.712Z,8.33
2023-01-18T19:25:29.851Z,8.13
2023-01-18T19:27:57.648Z,10.23
2023-01-18T19:30:25.383Z,7.63
2023-01-18T19:32:54.561Z,8.50
2023-01-18T19:35:22.481Z,8.67
2023-01-18T19:37:51.985Z,7.47
2023-01-18T19:40:20.361Z,11.67
2023-01-18T19:42:54.943Z,10.60
2023-01-18T19:45:28.380Z,8.47
2023-01-18T19:47:59.580Z,9.43
2023-01-18T19:50:29.791Z,7.30
2023-01-18T19:53:12.374Z,6.20
2023-01-18T19:55:40.334Z,8.77
2023-01-18T19:58:10.040Z,8.87
2023-01-18T20:00:41.253Z,9.77
2023-01-18T20:03:14.127Z,6.40
2023-01-18T20:05:44.661Z,9.50
2023-01-18T20:08:12.413Z,7.93
2023-01-18T20:10:40.660Z,12.70
2023-01-18T20:13:10.346Z,9.13
2023-01-18T20:15:42.170Z,9.93
2023-01-18T20:18:11.270Z,7.53
2023-01-18T20:20:39.065Z,7.87
2023-01-18T20:23:06.828Z,10.27
2023-01-18T20:25:34.645Z,8.00
2023-01-18T20:28:02.359Z,9.30
2023-01-18T20:30:30.096Z,8.97
2023-01-18T20:32:58.352Z,9.03
2023-01-18T20:35:28.535Z,9.37
2023-01-18T20:37:56.307Z,5.90
2023-01-18T20:40:24.143Z,7.40
2023-01-18T20:42:51.908Z,10.33
2023-01-18T20:45:19.601Z,8.93
2023-01-18T20:47:47.335Z,12.43
2023-01-18T20:50:15.043Z,8.73
2023-01-18T20:52:44.641Z,8.83
2023-01-18T20:55:14.635Z,8.77
2023-01-18T20:57:42.779Z,10.43
2023-01-18T21:00:12.582Z,8.10
2023-01-18T21:02:41.384Z,8.67
2023-01-18T21:05:09.977Z,9.97
2023-01-18T21:07:39.047Z,6.80
2023-01-18T21:10:10.778Z,7.10
2023-01-18T21:12:38.605Z,7.23
2023-01-18T21:15:13.933Z,7.63
2023-01-18T21:17:44.213Z,6.93
2023-01-18T21:20:12.762Z,8.77
2023-01-18T21:22:43.091Z,6.33
2023-01-18T21:25:12.387Z,7.17
2023-01-18T21:27:43.185Z,8.27
2023-01-18T21:30:12.380Z,7.77
2023-01-18T21:32:43.261Z,6.97
2023-01-18T21:35:11.365Z,14.43
2023-01-18T21:37:41.555Z,6.30
2023-01-18T21:40:10.731Z,6.63
2023-01-18T21:42:57.344Z,6.87
2023-01-18T21:45:42.677Z,10.50
2023-01-18T21:48:10.454Z,7.93
2023-01-18T21:50:58.369Z,6.63
2023-01-18T21:53:44.201Z,7.50
2023-01-18T21:56:12.073Z,6.03
2023-01-18T21:58:58.120Z,7.43
2023-01-18T22:01:29.993Z,8.53
2023-01-18T22:04:15.363Z,8.93
2023-01-18T22:06:43.111Z,7.63
2023-01-18T22:09:10.907Z,7.47
2023-01-18T22:11:38.683Z,8.63
2023-01-18T22:14:09.647Z,9.67
2023-01-18T22:16:38.471Z,7.27
2023-01-18T22:19:07.463Z,9.30
2023-01-18T22:21:35.391Z,9.90
2023-01-18T22:24:04.387Z,8.30
2023-01-18T22:26:32.733Z,7.13
2023-01-18T22:29:01.490Z,10.07
2023-01-18T22:31:30.575Z,9.50
2023-01-18T22:33:58.598Z,6.43
2023-01-18T22:36:26.297Z,7.57
2023-01-18T22:38:54.886Z,6.27
2023-01-18T22:41:24.475Z,7.60
2023-01-18T22:43:52.485Z,8.60
2023-01-18T22:46:21.789Z,8.30
2023-01-18T22:48:51.575Z,7.90
2023-01-18T22:51:21.650Z,8.93
2023-01-18T22:53:50.493Z,7.03
2023-01-18T22:56:19.986Z,10.23
2023-01-18T22:58:48.526Z,6.60
2023-01-18T23:01:18.887Z,8.93
2023-01-18T23:03:46.968Z,12.07
2023-01-18T23:06:16.165Z,8.60
2023-01-18T23:08:43.947Z,7.83
2023-01-18T23:11:13.731Z,8.47
2023-01-18T23:13:42.983Z,10.33
2023-01-18T23:16:33.999Z,6.20
2023-01-18T23:19:01.698Z,8.80
2023-01-18T23:21:30.751Z,7.20
2023-01-18T23:23:58.587Z,8.50
2023-01-18T23:26:26.307Z,10.70
2023-01-18T23:28:53.980Z,7.60
2023-01-18T23:31:21.874Z,8.27
2023-01-18T23:33:49.699Z,8.90
2023-01-18T23:36:17.461Z,7.03
2023-01-18T23:39:04.185Z,9.27
2023-01-18T23:41:49.505Z,8.40
2023-01-18T23:44:34.730Z,7.97
2023-01-18T23:47:20.137Z,10.07
2023-01-18T23:50:05.534Z,6.87
2023-01-18T23:52:50.802Z,7.23
2023-01-18T23:55:20.035Z,9.60
2023-01-18T23:57:47.804Z,8.17
